sensor_id;sensor_type;location;lat;lon;timestamp;pressure;altitude;pressure_sealevel;temperature;humidity
9009;BME280;62813;51.424;6.762;2023-01-01T00:01:44;100775.56;;;15.95;52.71
9009;BME280;62813;51.424;6.762;2023-01-01T00:04:12;100776.28;;;15.97;52.53
9009;BME280;62813;51.424;6.762;2023-01-01T00:06:40;100778.91;;;15.97;52.89
9009;BME280;62813;51.424;6.762;2023-01-01T00:09:07;100782.47;;;15.96;52.64
9009;BME280;62813;51.424;6.762;2023-01-01T00:11:52;100768.44;;;15.97;52.27
9009;BME280;62813;51.424;6.762;2023-01-01T00:14:19;100781.97;;;16.04;52.29
9009;BME280;62813;51.424;6.762;2023-01-01T00:16:45;100770.66;;;16.03;51.79
9009;BME280;62813;51.424;6.762;2023-01-01T00:19:12;100764.50;;;16.04;51.86
9009;BME280;62813;51.424;6.762;2023-01-01T00:21:38;100754.84;;;16.05;51.86
9009;BME280;62813;51.424;6.762;2023-01-01T00:24:05;100762.91;;;16.02;51.96
9009;BME280;62813;51.424;6.762;2023-01-01T00:26:32;100766.38;;;16.02;51.97
9009;BME280;62813;51.424;6.762;2023-01-01T00:29:01;100761.53;;;15.96;52.39
9009;BME280;62813;51.424;6.762;2023-01-01T00:31:28;100758.34;;;15.91;51.99
9009;BME280;62813;51.424;6.762;2023-01-01T00:33:55;100774.81;;;15.93;51.94
9009;BME280;62813;51.424;6.762;2023-01-01T00:36:24;100771.63;;;15.88;52.23
9009;BME280;62813;51.424;6.762;2023-01-01T00:38:51;100776.97;;;15.87;51.75
9009;BME280;62813;51.424;6.762;2023-01-01T00:41:18;100780.44;;;15.87;52.20
9009;BME280;62813;51.424;6.762;2023-01-01T00:43:48;100794.63;;;15.83;52.08
9009;BME280;62813;51.424;6.762;2023-01-01T00:46:16;100790.53;;;15.79;52.11
9009;BME280;62813;51.424;6.762;2023-01-01T00:48:46;100782.50;;;15.82;51.87
9009;BME280;62813;51.424;6.762;2023-01-01T00:51:13;100785.84;;;15.84;52.03
9009;BME280;62813;51.424;6.762;2023-01-01T00:53:40;100774.25;;;15.88;51.63
9009;BME280;62813;51.424;6.762;2023-01-01T00:56:06;100774.44;;;15.85;51.68
9009;BME280;62813;51.424;6.762;2023-01-01T00:58:33;100766.78;;;15.82;51.51
9009;BME280;62813;51.424;6.762;2023-01-01T01:00:59;100783.44;;;15.81;51.41
9009;BME280;62813;51.424;6.762;2023-01-01T01:03:26;100771.06;;;15.83;50.83
9009;BME280;62813;51.424;6.762;2023-01-01T01:08:29;100771.75;;;15.87;49.65
9009;BME280;62813;51.424;6.762;2023-01-01T01:13:31;100779.50;;;15.88;49.84
9009;BME280;62813;51.424;6.762;2023-01-01T01:15:57;100783.78;;;15.89;49.26
9009;BME280;62813;51.424;6.762;2023-01-01T01:18:24;100773.59;;;15.85;49.62
9009;BME280;62813;51.424;6.762;2023-01-01T01:20:51;100794.63;;;15.83;49.61
9009;BME280;62813;51.424;6.762;2023-01-01T01:23:19;100791.28;;;15.81;49.26
9009;BME280;62813;51.424;6.762;2023-01-01T01:25:46;100796.50;;;15.81;48.37
9009;BME280;62813;51.424;6.762;2023-01-01T01:28:12;100773.88;;;15.94;46.98
9009;BME280;62813;51.424;6.762;2023-01-01T01:30:40;100779.94;;;15.95;47.13
9009;BME280;62813;51.424;6.762;2023-01-01T01:33:06;100793.16;;;15.93;47.19
9009;BME280;62813;51.424;6.762;2023-01-01T01:35:33;100789.03;;;15.89;47.31
9009;BME280;62813;51.424;6.762;2023-01-01T01:38:00;100782.84;;;15.90;47.24
9009;BME280;62813;51.424;6.762;2023-01-01T01:40:26;100803.16;;;15.87;47.52
9009;BME280;62813;51.424;6.762;2023-01-01T01:42:53;100798.94;;;15.84;47.35
9009;BME280;62813;51.424;6.762;2023-01-01T01:45:19;100810.44;;;15.81;47.52
9009;BME280;62813;51.424;6.762;2023-01-01T01:47:51;100806.25;;;15.79;47.53
9009;BME280;62813;51.424;6.762;2023-01-01T01:50:31;100814.38;;;15.74;48.05
9009;BME280;62813;51.424;6.762;2023-01-01T01:55:47;100813.16;;;15.66;48.18
9009;BME280;62813;51.424;6.762;2023-01-01T01:58:16;100821.84;;;15.66;48.43
9009;BME280;62813;51.424;6.762;2023-01-01T02:00:43;100821.00;;;15.66;48.47
9009;BME280;62813;51.424;6.762;2023-01-01T02:03:13;100823.78;;;15.63;48.13
9009;BME280;62813;51.424;6.762;2023-01-01T02:05:41;100818.75;;;15.60;48.52
9009;BME280;62813;51.424;6.762;2023-01-01T02:08:12;100824.00;;;15.60;48.71
9009;BME280;62813;51.424;6.762;2023-01-01T02:10:40;100824.94;;;15.59;48.61
9009;BME280;62813;51.424;6.762;2023-01-01T02:13:07;100823.44;;;15.54;48.36
9009;BME280;62813;51.424;6.762;2023-01-01T02:15:38;100819.13;;;15.53;48.58
9009;BME280;62813;51.424;6.762;2023-01-01T02:18:09;100818.41;;;15.51;48.13
9009;BME280;62813;51.424;6.762;2023-01-01T02:20:55;100826.16;;;15.53;48.49
9009;BME280;62813;51.424;6.762;2023-01-01T02:26:34;100818.56;;;15.48;48.66
9009;BME280;62813;51.424;6.762;2023-01-01T02:32:01;100819.59;;;15.46;48.10
9009;BME280;62813;51.424;6.762;2023-01-01T02:34:34;100832.94;;;15.41;48.60
9009;BME280;62813;51.424;6.762;2023-01-01T02:37:04;100836.69;;;15.37;48.95
9009;BME280;62813;51.424;6.762;2023-01-01T02:39:35;100810.91;;;15.31;49.20
9009;BME280;62813;51.424;6.762;2023-01-01T02:42:04;100810.91;;;15.31;48.90
9009;BME280;62813;51.424;6.762;2023-01-01T02:44:36;100804.06;;;15.29;48.89
9009;BME280;62813;51.424;6.762;2023-01-01T02:47:10;100811.00;;;15.30;49.17
9009;BME280;62813;51.424;6.762;2023-01-01T02:49:43;100822.66;;;15.24;49.65
9009;BME280;62813;51.424;6.762;2023-01-01T02:55:04;100825.28;;;15.24;49.19
9009;BME280;62813;51.424;6.762;2023-01-01T02:57:40;100816.84;;;15.19;49.93
9009;BME280;62813;51.424;6.762;2023-01-01T03:00:14;100817.03;;;15.16;49.32
9009;BME280;62813;51.424;6.762;2023-01-01T03:03:08;100831.00;;;15.15;49.82
9009;BME280;62813;51.424;6.762;2023-01-01T03:08:47;100840.69;;;15.13;49.71
9009;BME280;62813;51.424;6.762;2023-01-01T03:11:16;100853.78;;;15.13;50.06
9009;BME280;62813;51.424;6.762;2023-01-01T03:16:31;100849.56;;;15.10;50.27
9009;BME280;62813;51.424;6.762;2023-01-01T03:21:41;100834.03;;;15.07;50.60
9009;BME280;62813;51.424;6.762;2023-01-01T03:24:14;100831.44;;;15.07;50.78
9009;BME280;62813;51.424;6.762;2023-01-01T03:26:43;100842.81;;;15.06;50.61
9009;BME280;62813;51.424;6.762;2023-01-01T03:29:13;100846.47;;;15.04;50.91
9009;BME280;62813;51.424;6.762;2023-01-01T03:31:43;100848.91;;;15.07;50.83
9009;BME280;62813;51.424;6.762;2023-01-01T03:34:17;100838.63;;;15.04;51.03
9009;BME280;62813;51.424;6.762;2023-01-01T03:36:49;100855.16;;;15.04;51.45
9009;BME280;62813;51.424;6.762;2023-01-01T03:39:22;100857.78;;;15.04;51.07
9009;BME280;62813;51.424;6.762;2023-01-01T03:42:21;100858.69;;;15.03;51.56
9009;BME280;62813;51.424;6.762;2023-01-01T03:45:14;100863.19;;;15.01;51.84
9009;BME280;62813;51.424;6.762;2023-01-01T03:47:42;100861.56;;;14.98;51.66
9009;BME280;62813;51.424;6.762;2023-01-01T03:50:09;100847.75;;;14.96;51.88
9009;BME280;62813;51.424;6.762;2023-01-01T03:53:13;100854.75;;;14.96;52.45
9009;BME280;62813;51.424;6.762;2023-01-01T03:56:33;100856.53;;;14.95;52.16
9009;BME280;62813;51.424;6.762;2023-01-01T03:59:23;100865.31;;;14.94;52.38
9009;BME280;62813;51.424;6.762;2023-01-01T04:01:54;100863.59;;;14.93;52.97
9009;BME280;62813;51.424;6.762;2023-01-01T04:04:25;100879.28;;;14.93;53.82
9009;BME280;62813;51.424;6.762;2023-01-01T04:06:53;100883.00;;;14.89;54.05
9009;BME280;62813;51.424;6.762;2023-01-01T04:09:28;100881.34;;;14.88;53.98
9009;BME280;62813;51.424;6.762;2023-01-01T04:11:56;100877.88;;;14.88;53.94
9009;BME280;62813;51.424;6.762;2023-01-01T04:16:56;100872.56;;;14.89;54.25
9009;BME280;62813;51.424;6.762;2023-01-01T04:19:22;100868.28;;;14.88;54.62
9009;BME280;62813;51.424;6.762;2023-01-01T04:21:49;100883.00;;;14.89;54.72
9009;BME280;62813;51.424;6.762;2023-01-01T04:24:16;100869.75;;;14.92;54.23
9009;BME280;62813;51.424;6.762;2023-01-01T04:26:45;100878.63;;;14.90;54.58
9009;BME280;62813;51.424;6.762;2023-01-01T04:29:12;100871.63;;;14.90;54.87
9009;BME280;62813;51.424;6.762;2023-01-01T04:31:38;100882.16;;;14.89;54.41
9009;BME280;62813;51.424;6.762;2023-01-01T04:34:05;100876.75;;;14.92;54.69
9009;BME280;62813;51.424;6.762;2023-01-01T04:36:32;100870.53;;;14.94;54.55
9009;BME280;62813;51.424;6.762;2023-01-01T04:39:01;100878.28;;;14.96;54.47
9009;BME280;62813;51.424;6.762;2023-01-01T04:41:28;100890.22;;;15.00;54.86
9009;BME280;62813;51.424;6.762;2023-01-01T04:43:54;100886.78;;;14.99;54.75
9009;BME280;62813;51.424;6.762;2023-01-01T04:46:21;100886.03;;;14.97;55.19
9009;BME280;62813;51.424;6.762;2023-01-01T04:48:48;100896.38;;;14.99;54.71
9009;BME280;62813;51.424;6.762;2023-01-01T04:51:20;100886.03;;;14.97;55.16
9009;BME280;62813;51.424;6.762;2023-01-01T04:53:47;100893.13;;;14.95;55.53
9009;BME280;62813;51.424;6.762;2023-01-01T04:56:17;100903.59;;;14.95;55.23
9009;BME280;62813;51.424;6.762;2023-01-01T04:58:45;100901.81;;;14.96;55.31
9009;BME280;62813;51.424;6.762;2023-01-01T05:01:20;100901.13;;;14.92;55.67
9009;BME280;62813;51.424;6.762;2023-01-01T05:03:47;100902.75;;;14.95;55.72
9009;BME280;62813;51.424;6.762;2023-01-01T05:06:14;100887.06;;;14.95;55.57
9009;BME280;62813;51.424;6.762;2023-01-01T05:08:43;100895.84;;;14.94;55.98
9009;BME280;62813;51.424;6.762;2023-01-01T05:11:19;100898.34;;;14.95;55.86
9009;BME280;62813;51.424;6.762;2023-01-01T05:13:48;100889.72;;;14.93;55.88
9009;BME280;62813;51.424;6.762;2023-01-01T05:16:16;100890.75;;;14.91;56.10
9009;BME280;62813;51.424;6.762;2023-01-01T05:18:44;100893.47;;;14.89;56.18
9009;BME280;62813;51.424;6.762;2023-01-01T05:21:16;100887.56;;;14.86;56.17
9009;BME280;62813;51.424;6.762;2023-01-01T05:23:43;100883.34;;;14.83;56.37
9009;BME280;62813;51.424;6.762;2023-01-01T05:26:18;100905.28;;;14.81;56.44
9009;BME280;62813;51.424;6.762;2023-01-01T05:28:46;100914.06;;;14.80;56.51
9009;BME280;62813;51.424;6.762;2023-01-01T05:31:15;100929.81;;;14.78;56.17
9009;BME280;62813;51.424;6.762;2023-01-01T05:33:42;100925.50;;;14.77;56.30
9009;BME280;62813;51.424;6.762;2023-01-01T05:36:15;100943.88;;;14.76;56.44
9009;BME280;62813;51.424;6.762;2023-01-01T05:38:42;100955.19;;;14.76;56.69
9009;BME280;62813;51.424;6.762;2023-01-01T05:41:12;100946.69;;;14.72;56.91
9009;BME280;62813;51.424;6.762;2023-01-01T05:43:38;100948.41;;;14.72;57.02
9009;BME280;62813;51.424;6.762;2023-01-01T05:46:09;100945.81;;;14.72;57.14
9009;BME280;62813;51.424;6.762;2023-01-01T05:48:36;100950.28;;;14.70;57.27
9009;BME280;62813;51.424;6.762;2023-01-01T05:51:08;100959.06;;;14.69;57.75
9009;BME280;62813;51.424;6.762;2023-01-01T05:53:35;100959.25;;;14.66;57.54
9009;BME280;62813;51.424;6.762;2023-01-01T05:56:02;100956.69;;;14.64;58.00
9009;BME280;62813;51.424;6.762;2023-01-01T05:58:30;100954.06;;;14.64;58.25
9009;BME280;62813;51.424;6.762;2023-01-01T06:01:14;100955.09;;;14.62;58.69
9009;BME280;62813;51.424;6.762;2023-01-01T06:03:42;100964.78;;;14.60;58.63
9009;BME280;62813;51.424;6.762;2023-01-01T06:06:12;100992.00;;;14.56;58.79
9009;BME280;62813;51.424;6.762;2023-01-01T06:08:39;100997.13;;;14.57;58.40
9009;BME280;62813;51.424;6.762;2023-01-01T06:11:08;100990.31;;;14.55;58.49
9009;BME280;62813;51.424;6.762;2023-01-01T06:13:36;100994.78;;;14.53;58.44
9009;BME280;62813;51.424;6.762;2023-01-01T06:16:03;100996.47;;;14.54;58.16
9009;BME280;62813;51.424;6.762;2023-01-01T06:18:33;101000.00;;;14.53;58.90
9009;BME280;62813;51.424;6.762;2023-01-01T06:21:11;100997.44;;;14.51;58.80
9009;BME280;62813;51.424;6.762;2023-01-01T06:23:39;101006.06;;;14.53;58.58
9009;BME280;62813;51.424;6.762;2023-01-01T06:28:39;101015.50;;;14.56;58.62
9009;BME280;62813;51.424;6.762;2023-01-01T06:31:08;100999.81;;;14.56;58.92
9009;BME280;62813;51.424;6.762;2023-01-01T06:33:36;101004.91;;;14.59;58.43
9009;BME280;62813;51.424;6.762;2023-01-01T06:36:06;101013.63;;;14.58;58.68
9009;BME280;62813;51.424;6.762;2023-01-01T06:38:36;101016.19;;;14.59;58.39
9009;BME280;62813;51.424;6.762;2023-01-01T06:41:06;101022.25;;;14.60;58.28
9009;BME280;62813;51.424;6.762;2023-01-01T06:43:35;101030.84;;;14.62;58.70
9009;BME280;62813;51.424;6.762;2023-01-01T06:46:11;101036.00;;;14.63;58.33
9009;BME280;62813;51.424;6.762;2023-01-01T06:48:39;101042.16;;;14.62;58.73
9009;BME280;62813;51.424;6.762;2023-01-01T06:51:15;101043.91;;;14.62;58.69
9009;BME280;62813;51.424;6.762;2023-01-01T06:53:42;101029.16;;;14.61;59.08
9009;BME280;62813;51.424;6.762;2023-01-01T06:56:09;101033.38;;;14.63;58.83
9009;BME280;62813;51.424;6.762;2023-01-01T06:58:36;101036.16;;;14.60;59.45
9009;BME280;62813;51.424;6.762;2023-01-01T07:03:34;101045.59;;;14.63;59.61
9009;BME280;62813;51.424;6.762;2023-01-01T07:06:01;101045.00;;;14.58;59.59
9009;BME280;62813;51.424;6.762;2023-01-01T07:08:27;101038.88;;;14.59;59.55
9009;BME280;62813;51.424;6.762;2023-01-01T07:10:54;101050.22;;;14.58;59.54
9009;BME280;62813;51.424;6.762;2023-01-01T07:13:24;101055.44;;;14.58;59.92
9009;BME280;62813;51.424;6.762;2023-01-01T07:15:51;101062.38;;;14.59;59.79
9009;BME280;62813;51.424;6.762;2023-01-01T07:18:19;101072.81;;;14.59;59.88
9009;BME280;62813;51.424;6.762;2023-01-01T07:20:54;101077.25;;;14.57;60.55
9009;BME280;62813;51.424;6.762;2023-01-01T07:23:21;101080.06;;;14.54;61.27
9009;BME280;62813;51.424;6.762;2023-01-01T07:25:48;101098.56;;;14.49;61.74
9009;BME280;62813;51.424;6.762;2023-01-01T07:28:15;101091.66;;;14.48;62.40
9009;BME280;62813;51.424;6.762;2023-01-01T07:30:42;101100.56;;;14.44;63.23
9009;BME280;62813;51.424;6.762;2023-01-01T07:33:11;101102.59;;;14.39;64.17
9009;BME280;62813;51.424;6.762;2023-01-01T07:35:38;101103.13;;;14.28;64.59
9009;BME280;62813;51.424;6.762;2023-01-01T07:38:05;101118.03;;;14.26;64.97
9009;BME280;62813;51.424;6.762;2023-01-01T07:40:32;101110.34;;;14.23;65.77
9009;BME280;62813;51.424;6.762;2023-01-01T07:42:58;101106.19;;;14.19;66.47
9009;BME280;62813;51.424;6.762;2023-01-01T07:45:26;101120.47;;;14.12;66.83
9009;BME280;62813;51.424;6.762;2023-01-01T07:47:54;101127.56;;;14.10;66.52
9009;BME280;62813;51.424;6.762;2023-01-01T07:50:22;101138.00;;;14.10;66.89
9009;BME280;62813;51.424;6.762;2023-01-01T07:52:49;101128.53;;;14.07;67.55
9009;BME280;62813;51.424;6.762;2023-01-01T07:55:17;101144.34;;;14.04;66.97
9009;BME280;62813;51.424;6.762;2023-01-01T07:57:46;101138.28;;;14.04;67.02
9009;BME280;62813;51.424;6.762;2023-01-01T08:00:15;101145.97;;;14.07;66.92
9009;BME280;62813;51.424;6.762;2023-01-01T08:02:42;101153.78;;;14.07;66.70
9009;BME280;62813;51.424;6.762;2023-01-01T08:05:11;101142.72;;;14.02;66.92
9009;BME280;62813;51.424;6.762;2023-01-01T08:07:38;101159.16;;;14.04;66.87
9009;BME280;62813;51.424;6.762;2023-01-01T08:10:05;101160.84;;;14.05;66.70
9009;BME280;62813;51.424;6.762;2023-01-01T08:12:32;101177.34;;;14.05;66.88
9009;BME280;62813;51.424;6.762;2023-01-01T08:14:59;101174.66;;;14.07;67.02
9009;BME280;62813;51.424;6.762;2023-01-01T08:17:25;101170.53;;;14.03;66.92
9009;BME280;62813;51.424;6.762;2023-01-01T08:19:52;101184.19;;;14.08;66.63
9009;BME280;62813;51.424;6.762;2023-01-01T08:22:19;101183.44;;;14.06;66.71
9009;BME280;62813;51.424;6.762;2023-01-01T08:24:45;101175.50;;;14.07;66.61
9009;BME280;62813;51.424;6.762;2023-01-01T08:27:14;101172.06;;;14.07;67.17
9009;BME280;62813;51.424;6.762;2023-01-01T08:29:43;101176.34;;;14.08;66.76
9009;BME280;62813;51.424;6.762;2023-01-01T08:32:12;101174.59;;;14.08;66.90
9009;BME280;62813;51.424;6.762;2023-01-01T08:34:39;101180.72;;;14.07;67.09
9009;BME280;62813;51.424;6.762;2023-01-01T08:37:08;101206.06;;;14.05;67.08
9009;BME280;62813;51.424;6.762;2023-01-01T08:39:36;101204.31;;;14.06;66.91
9009;BME280;62813;51.424;6.762;2023-01-01T08:42:03;101211.13;;;14.08;66.92
9009;BME280;62813;51.424;6.762;2023-01-01T08:44:37;101217.19;;;14.09;66.91
9009;BME280;62813;51.424;6.762;2023-01-01T08:47:03;101212.91;;;14.08;67.08
9009;BME280;62813;51.424;6.762;2023-01-01T08:49:30;101220.72;;;14.08;66.61
9009;BME280;62813;51.424;6.762;2023-01-01T08:51:57;101230.25;;;14.09;67.12
9009;BME280;62813;51.424;6.762;2023-01-01T08:54:23;101228.56;;;14.08;67.22
9009;BME280;62813;51.424;6.762;2023-01-01T08:56:50;101221.66;;;14.07;67.42
9009;BME280;62813;51.424;6.762;2023-01-01T08:59:16;101236.56;;;14.05;67.40
9009;BME280;62813;51.424;6.762;2023-01-01T09:01:44;101233.94;;;14.05;67.50
9009;BME280;62813;51.424;6.762;2023-01-01T09:04:11;101240.00;;;14.05;67.69
9009;BME280;62813;51.424;6.762;2023-01-01T09:06:41;101250.28;;;14.08;67.30
9009;BME280;62813;51.424;6.762;2023-01-01T09:09:07;101264.97;;;14.11;67.33
9009;BME280;62813;51.424;6.762;2023-01-01T09:11:35;101261.56;;;14.09;67.59
9009;BME280;62813;51.424;6.762;2023-01-01T09:14:02;101277.22;;;14.09;67.65
9009;BME280;62813;51.424;6.762;2023-01-01T09:16:28;101275.41;;;14.11;67.41
9009;BME280;62813;51.424;6.762;2023-01-01T09:18:57;101274.56;;;14.10;67.27
9009;BME280;62813;51.424;6.762;2023-01-01T09:21:24;101275.53;;;14.08;67.34
9009;BME280;62813;51.424;6.762;2023-01-01T09:23:50;101282.41;;;14.10;67.49
9009;BME280;62813;51.424;6.762;2023-01-01T09:26:19;101287.69;;;14.09;67.02
9009;BME280;62813;51.424;6.762;2023-01-01T09:28:46;101286.84;;;14.08;67.10
9009;BME280;62813;51.424;6.762;2023-01-01T09:31:13;101287.75;;;14.07;66.89
9009;BME280;62813;51.424;6.762;2023-01-01T09:33:39;101284.19;;;14.10;67.26
9009;BME280;62813;51.424;6.762;2023-01-01T09:36:30;101286.78;;;14.10;67.73
9009;BME280;62813;51.424;6.762;2023-01-01T09:38:57;101295.50;;;14.09;67.48
9009;BME280;62813;51.424;6.762;2023-01-01T09:49:59;101304.97;;;14.11;67.55
9009;BME280;62813;51.424;6.762;2023-01-01T09:52:34;101312.66;;;14.14;67.38
9009;BME280;62813;51.424;6.762;2023-01-01T09:55:11;101310.13;;;14.13;67.02
9009;BME280;62813;51.424;6.762;2023-01-01T09:57:40;101314.56;;;14.11;67.26
9009;BME280;62813;51.424;6.762;2023-01-01T10:00:15;101322.41;;;14.11;67.11
9009;BME280;62813;51.424;6.762;2023-01-01T10:02:57;101335.38;;;14.12;67.64
9009;BME280;62813;51.424;6.762;2023-01-01T10:05:36;101334.53;;;14.12;67.64
9009;BME280;62813;51.424;6.762;2023-01-01T10:18:27;101317.88;;;14.14;67.52
9009;BME280;62813;51.424;6.762;2023-01-01T10:21:04;101312.53;;;14.18;67.41
9009;BME280;62813;51.424;6.762;2023-01-01T10:23:48;101312.53;;;14.18;68.01
9009;BME280;62813;51.424;6.762;2023-01-01T10:26:18;101305.47;;;14.20;67.99
9009;BME280;62813;51.424;6.762;2023-01-01T10:31:35;101304.34;;;14.25;67.46
9009;BME280;62813;51.424;6.762;2023-01-01T10:34:14;101309.41;;;14.28;67.95
9009;BME280;62813;51.424;6.762;2023-01-01T10:36:43;101296.34;;;14.28;67.26
9009;BME280;62813;51.424;6.762;2023-01-01T10:39:16;101290.19;;;14.29;67.42
9009;BME280;62813;51.424;6.762;2023-01-01T10:41:44;101291.19;;;14.27;66.97
9009;BME280;62813;51.424;6.762;2023-01-01T10:44:29;101279.91;;;14.26;67.59
9009;BME280;62813;51.424;6.762;2023-01-01T10:46:58;101287.53;;;14.31;67.60
9009;BME280;62813;51.424;6.762;2023-01-01T10:49:25;101293.59;;;14.31;67.51
9009;BME280;62813;51.424;6.762;2023-01-01T10:51:53;101293.44;;;14.34;67.41
9009;BME280;62813;51.424;6.762;2023-01-01T10:56:56;101275.78;;;14.39;67.25
9009;BME280;62813;51.424;6.762;2023-01-01T10:59:38;101284.38;;;14.41;66.73
9009;BME280;62813;51.424;6.762;2023-01-01T11:04:46;101288.25;;;14.52;66.95
9009;BME280;62813;51.424;6.762;2023-01-01T11:07:32;101294.09;;;14.57;66.88
9009;BME280;62813;51.424;6.762;2023-01-01T11:10:02;101308.84;;;14.58;66.55
9009;BME280;62813;51.424;6.762;2023-01-01T11:12:35;101305.53;;;14.54;66.73
9009;BME280;62813;51.424;6.762;2023-01-01T11:15:37;101303.00;;;14.53;66.64
9009;BME280;62813;51.424;6.762;2023-01-01T11:18:13;101314.06;;;14.58;66.53
9009;BME280;62813;51.424;6.762;2023-01-01T11:20:40;101309.63;;;14.60;66.37
9009;BME280;62813;51.424;6.762;2023-01-01T11:23:28;101325.06;;;14.64;66.11
9009;BME280;62813;51.424;6.762;2023-01-01T11:26:04;101327.13;;;14.58;66.37
9009;BME280;62813;51.424;6.762;2023-01-01T11:28:41;101331.13;;;14.48;66.30
9009;BME280;62813;51.424;6.762;2023-01-01T11:31:20;101328.13;;;14.55;66.56
9009;BME280;62813;51.424;6.762;2023-01-01T11:34:02;101334.84;;;14.61;66.50
9009;BME280;62813;51.424;6.762;2023-01-01T11:36:37;101328.75;;;14.60;66.06
9009;BME280;62813;51.424;6.762;2023-01-01T11:39:22;101335.59;;;14.63;66.38
9009;BME280;62813;51.424;6.762;2023-01-01T11:41:56;101340.13;;;14.59;65.95
9009;BME280;62813;51.424;6.762;2023-01-01T11:44:35;101341.09;;;14.57;66.21
9009;BME280;62813;51.424;6.762;2023-01-01T11:47:04;101353.56;;;14.52;66.30
9009;BME280;62813;51.424;6.762;2023-01-01T11:49:32;101342.13;;;14.54;66.00
9009;BME280;62813;51.424;6.762;2023-01-01T11:52:00;101342.41;;;14.48;65.92
9009;BME280;62813;51.424;6.762;2023-01-01T11:54:33;101336.19;;;14.51;66.33
9009;BME280;62813;51.424;6.762;2023-01-01T11:57:10;101345.78;;;14.50;66.15
9009;BME280;62813;51.424;6.762;2023-01-01T11:59:46;101341.47;;;14.49;65.99
9009;BME280;62813;51.424;6.762;2023-01-01T12:02:24;101338.78;;;14.51;65.90
9009;BME280;62813;51.424;6.762;2023-01-01T12:05:55;101330.81;;;14.54;66.31
9009;BME280;62813;51.424;6.762;2023-01-01T12:07:57;101327.44;;;14.52;66.04
9009;BME280;62813;51.424;6.762;2023-01-01T12:10:30;101323.97;;;14.51;66.01
9009;BME280;62813;51.424;6.762;2023-01-01T12:13:00;101316.28;;;14.48;66.25
9009;BME280;62813;51.424;6.762;2023-01-01T12:15:38;101316.38;;;14.47;65.76
9009;BME280;62813;51.424;6.762;2023-01-01T12:18:27;101309.44;;;14.46;65.78
9009;BME280;62813;51.424;6.762;2023-01-01T12:21:03;101307.59;;;14.48;65.29
9009;BME280;62813;51.424;6.762;2023-01-01T12:23:31;101298.09;;;14.47;65.54
9009;BME280;62813;51.424;6.762;2023-01-01T12:26:08;101307.69;;;14.46;65.61
9009;BME280;62813;51.424;6.762;2023-01-01T12:31:41;101300.81;;;14.43;65.57
9009;BME280;62813;51.424;6.762;2023-01-01T12:34:45;101303.44;;;14.43;65.46
9009;BME280;62813;51.424;6.762;2023-01-01T12:40:16;101306.22;;;14.40;65.54
9009;BME280;62813;51.424;6.762;2023-01-01T12:42:59;101308.66;;;14.43;65.39
9009;BME280;62813;51.424;6.762;2023-01-01T12:45:51;101317.34;;;14.44;65.91
9009;BME280;62813;51.424;6.762;2023-01-01T12:48:32;101328.72;;;14.43;65.69
9009;BME280;62813;51.424;6.762;2023-01-01T12:56:33;101307.13;;;14.39;65.76
9009;BME280;62813;51.424;6.762;2023-01-01T12:59:06;101312.28;;;14.41;65.87
9009;BME280;62813;51.424;6.762;2023-01-01T13:01:37;101317.56;;;14.39;66.12
9009;BME280;62813;51.424;6.762;2023-01-01T13:04:13;101315.72;;;14.41;65.69
9009;BME280;62813;51.424;6.762;2023-01-01T13:06:59;101320.81;;;14.44;65.62
9009;BME280;62813;51.424;6.762;2023-01-01T13:09:36;101306.69;;;14.49;65.39
9009;BME280;62813;51.424;6.762;2023-01-01T13:12:07;101306.00;;;14.45;65.71
9009;BME280;62813;51.424;6.762;2023-01-01T13:14:38;101305.00;;;14.48;65.37
9009;BME280;62813;51.424;6.762;2023-01-01T13:19:42;101321.34;;;14.51;65.17
9009;BME280;62813;51.424;6.762;2023-01-01T13:38:58;101331.00;;;14.32;65.67
9009;BME280;62813;51.424;6.762;2023-01-01T13:46:26;101326.16;;;14.24;65.46
9009;BME280;62813;51.424;6.762;2023-01-01T13:57:35;101315.06;;;14.19;65.57
9009;BME280;62813;51.424;6.762;2023-01-01T14:00:17;101314.13;;;14.20;65.99
9009;BME280;62813;51.424;6.762;2023-01-01T14:02:54;101302.94;;;14.18;65.71
9009;BME280;62813;51.424;6.762;2023-01-01T14:05:29;101306.50;;;14.15;65.72
9009;BME280;62813;51.424;6.762;2023-01-01T14:07:57;101302.28;;;14.13;65.74
9009;BME280;62813;51.424;6.762;2023-01-01T14:10:36;101301.53;;;14.11;66.05
9009;BME280;62813;51.424;6.762;2023-01-01T14:15:38;101312.88;;;14.10;65.75
9009;BME280;62813;51.424;6.762;2023-01-01T14:18:14;101307.66;;;14.10;65.79
9009;BME280;62813;51.424;6.762;2023-01-01T14:20:47;101312.88;;;14.10;66.00
9009;BME280;62813;51.424;6.762;2023-01-01T14:23:29;101313.78;;;14.09;66.10
9009;BME280;62813;51.424;6.762;2023-01-01T14:25:59;101306.88;;;14.08;66.27
9009;BME280;62813;51.424;6.762;2023-01-01T14:28:30;101308.72;;;14.06;66.33
9009;BME280;62813;51.424;6.762;2023-01-01T14:31:09;101309.75;;;14.02;66.27
9009;BME280;62813;51.424;6.762;2023-01-01T14:33:37;101313.28;;;14.01;66.25
9009;BME280;62813;51.424;6.762;2023-01-01T14:36:14;101316.06;;;13.98;66.15
9009;BME280;62813;51.424;6.762;2023-01-01T14:38:43;101317.81;;;13.97;66.42
9009;BME280;62813;51.424;6.762;2023-01-01T14:41:15;101323.97;;;13.96;66.39
9009;BME280;62813;51.424;6.762;2023-01-01T14:43:45;101327.41;;;13.97;66.47
9009;BME280;62813;51.424;6.762;2023-01-01T14:46:22;101331.66;;;13.99;66.01
9009;BME280;62813;51.424;6.762;2023-01-01T14:48:52;101324.00;;;13.95;66.29
9009;BME280;62813;51.424;6.762;2023-01-01T14:51:22;101337.94;;;13.95;66.42
9009;BME280;62813;51.424;6.762;2023-01-01T14:53:51;101340.59;;;13.94;66.05
9009;BME280;62813;51.424;6.762;2023-01-01T14:56:30;101341.38;;;13.96;66.44
9009;BME280;62813;51.424;6.762;2023-01-01T14:59:16;101345.81;;;13.94;65.89
9009;BME280;62813;51.424;6.762;2023-01-01T15:01:57;101348.56;;;13.91;66.53
9009;BME280;62813;51.424;6.762;2023-01-01T15:04:24;101337.97;;;13.94;66.61
9009;BME280;62813;51.424;6.762;2023-01-01T15:06:57;101341.59;;;13.91;66.39
9009;BME280;62813;51.424;6.762;2023-01-01T15:09:25;101340.84;;;13.87;66.60